sensor_id;sensor_type;location;lat;lon;timestamp;P1;durP1;ratioP1;P2;durP2;ratioP2
69030;SDS011;56083;48.774;8.942;2024-03-08T00:01:01;60.75;;;32.92;;
69030;SDS011;56083;48.774;8.942;2024-03-08T00:03:27;63.13;;;33.25;;
69030;SDS011;56083;48.774;8.942;2024-03-08T00:05:54;58.83;;;31.63;;
69030;SDS011;56083;48.774;8.942;2024-03-08T00:08:21;60.55;;;31.85;;
69030;SDS011;56083;48.774;8.942;2024-03-08T00:10:47;62.50;;;31.48;;
69030;SDS011;56083;48.774;8.942;2024-03-08T00:13:13;57.60;;;31.10;;
69030;SDS011;56083;48.774;8.942;2024-03-08T00:15:39;59.83;;;31.08;;
69030;SDS011;56083;48.774;8.942;2024-03-08T00:18:06;60.00;;;32.45;;
69030;SDS011;56083;48.774;8.942;2024-03-08T00:20:32;62.35;;;31.48;;
69030;SDS011;56083;48.774;8.942;2024-03-08T00:22:58;62.28;;;32.28;;
69030;SDS011;56083;48.774;8.942;2024-03-08T00:25:24;61.28;;;31.67;;
69030;SDS011;56083;48.774;8.942;2024-03-08T00:27:51;59.85;;;31.67;;
69030;SDS011;56083;48.774;8.942;2024-03-08T00:30:20;59.92;;;31.13;;
69030;SDS011;56083;48.774;8.942;2024-03-08T00:32:48;63.40;;;32.05;;
69030;SDS011;56083;48.774;8.942;2024-03-08T00:35:14;62.67;;;31.27;;
69030;SDS011;56083;48.774;8.942;2024-03-08T00:37:40;58.67;;;31.08;;
69030;SDS011;56083;48.774;8.942;2024-03-08T00:40:12;56.78;;;30.90;;
69030;SDS011;56083;48.774;8.942;2024-03-08T00:42:38;61.90;;;31.75;;
69030;SDS011;56083;48.774;8.942;2024-03-08T00:45:06;59.35;;;30.38;;
69030;SDS011;56083;48.774;8.942;2024-03-08T00:47:32;62.05;;;31.92;;
69030;SDS011;56083;48.774;8.942;2024-03-08T00:49:58;66.40;;;32.38;;
69030;SDS011;56083;48.774;8.942;2024-03-08T00:52:24;60.30;;;31.08;;
69030;SDS011;56083;48.774;8.942;2024-03-08T00:54:50;58.85;;;30.98;;
69030;SDS011;56083;48.774;8.942;2024-03-08T00:57:16;56.78;;;30.10;;
69030;SDS011;56083;48.774;8.942;2024-03-08T00:59:42;58.60;;;30.42;;
69030;SDS011;56083;48.774;8.942;2024-03-08T01:02:09;57.65;;;31.52;;
69030;SDS011;56083;48.774;8.942;2024-03-08T01:04:35;58.60;;;30.45;;
69030;SDS011;56083;48.774;8.942;2024-03-08T01:07:01;56.50;;;30.60;;
69030;SDS011;56083;48.774;8.942;2024-03-08T01:09:27;58.72;;;29.15;;
69030;SDS011;56083;48.774;8.942;2024-03-08T01:11:54;56.00;;;30.30;;
69030;SDS011;56083;48.774;8.942;2024-03-08T01:14:21;60.20;;;29.77;;
69030;SDS011;56083;48.774;8.942;2024-03-08T01:16:54;54.35;;;30.33;;
69030;SDS011;56083;48.774;8.942;2024-03-08T01:19:20;61.42;;;29.90;;
69030;SDS011;56083;48.774;8.942;2024-03-08T01:21:46;56.80;;;29.77;;
69030;SDS011;56083;48.774;8.942;2024-03-08T01:24:12;60.78;;;30.00;;
69030;SDS011;56083;48.774;8.942;2024-03-08T01:26:38;52.10;;;28.88;;
69030;SDS011;56083;48.774;8.942;2024-03-08T01:29:04;57.38;;;29.52;;
69030;SDS011;56083;48.774;8.942;2024-03-08T01:31:30;56.83;;;29.55;;
69030;SDS011;56083;48.774;8.942;2024-03-08T01:33:57;57.30;;;30.30;;
69030;SDS011;56083;48.774;8.942;2024-03-08T01:36:23;57.15;;;30.85;;
69030;SDS011;56083;48.774;8.942;2024-03-08T01:38:49;55.58;;;29.98;;
69030;SDS011;56083;48.774;8.942;2024-03-08T01:41:15;58.25;;;29.65;;
69030;SDS011;56083;48.774;8.942;2024-03-08T01:43:42;60.50;;;30.85;;
69030;SDS011;56083;48.774;8.942;2024-03-08T01:46:09;59.72;;;31.35;;
69030;SDS011;56083;48.774;8.942;2024-03-08T01:48:35;66.72;;;31.40;;
69030;SDS011;56083;48.774;8.942;2024-03-08T01:51:01;64.85;;;31.98;;
69030;SDS011;56083;48.774;8.942;2024-03-08T01:53:27;56.17;;;30.45;;
69030;SDS011;56083;48.774;8.942;2024-03-08T01:55:56;63.33;;;31.60;;
69030;SDS011;56083;48.774;8.942;2024-03-08T01:58:22;60.00;;;30.80;;
69030;SDS011;56083;48.774;8.942;2024-03-08T02:00:49;64.95;;;33.13;;
69030;SDS011;56083;48.774;8.942;2024-03-08T02:03:15;59.60;;;31.92;;
69030;SDS011;56083;48.774;8.942;2024-03-08T02:05:42;63.15;;;32.13;;
69030;SDS011;56083;48.774;8.942;2024-03-08T02:08:08;64.25;;;31.92;;
69030;SDS011;56083;48.774;8.942;2024-03-08T02:10:43;60.78;;;32.35;;
69030;SDS011;56083;48.774;8.942;2024-03-08T02:16:02;55.53;;;31.15;;
69030;SDS011;56083;48.774;8.942;2024-03-08T02:19:05;63.45;;;32.40;;
69030;SDS011;56083;48.774;8.942;2024-03-08T02:25:01;69.13;;;34.67;;
69030;SDS011;56083;48.774;8.942;2024-03-08T02:27:28;62.40;;;32.55;;
69030;SDS011;56083;48.774;8.942;2024-03-08T02:29:55;63.50;;;33.55;;
69030;SDS011;56083;48.774;8.942;2024-03-08T02:32:25;62.13;;;33.00;;
69030;SDS011;56083;48.774;8.942;2024-03-08T02:34:51;66.05;;;33.22;;
69030;SDS011;56083;48.774;8.942;2024-03-08T02:37:21;65.25;;;32.47;;
69030;SDS011;56083;48.774;8.942;2024-03-08T02:39:47;70.22;;;33.85;;
69030;SDS011;56083;48.774;8.942;2024-03-08T02:42:13;70.80;;;33.63;;
69030;SDS011;56083;48.774;8.942;2024-03-08T02:44:43;63.42;;;32.25;;
69030;SDS011;56083;48.774;8.942;2024-03-08T02:47:09;71.32;;;33.30;;
69030;SDS011;56083;48.774;8.942;2024-03-08T02:49:35;61.08;;;31.45;;
69030;SDS011;56083;48.774;8.942;2024-03-08T02:52:03;67.53;;;32.42;;
69030;SDS011;56083;48.774;8.942;2024-03-08T02:54:29;65.50;;;32.38;;
69030;SDS011;56083;48.774;8.942;2024-03-08T02:56:55;66.78;;;32.25;;
69030;SDS011;56083;48.774;8.942;2024-03-08T02:59:21;64.78;;;31.88;;
69030;SDS011;56083;48.774;8.942;2024-03-08T03:01:48;66.82;;;31.70;;
69030;SDS011;56083;48.774;8.942;2024-03-08T03:04:14;67.43;;;32.65;;
69030;SDS011;56083;48.774;8.942;2024-03-08T03:06:40;60.97;;;32.13;;
69030;SDS011;56083;48.774;8.942;2024-03-08T03:09:06;63.67;;;32.00;;
69030;SDS011;56083;48.774;8.942;2024-03-08T03:11:33;68.93;;;32.05;;
69030;SDS011;56083;48.774;8.942;2024-03-08T03:13:59;63.38;;;32.75;;
69030;SDS011;56083;48.774;8.942;2024-03-08T03:16:25;61.72;;;31.83;;
69030;SDS011;56083;48.774;8.942;2024-03-08T03:18:51;61.50;;;31.00;;
69030;SDS011;56083;48.774;8.942;2024-03-08T03:21:17;62.20;;;31.25;;
69030;SDS011;56083;48.774;8.942;2024-03-08T03:23:43;63.67;;;31.45;;
69030;SDS011;56083;48.774;8.942;2024-03-08T03:26:09;66.95;;;30.77;;
69030;SDS011;56083;48.774;8.942;2024-03-08T03:28:38;60.40;;;29.92;;
69030;SDS011;56083;48.774;8.942;2024-03-08T03:31:07;60.63;;;30.23;;
69030;SDS011;56083;48.774;8.942;2024-03-08T03:33:39;58.85;;;30.00;;
69030;SDS011;56083;48.774;8.942;2024-03-08T03:36:05;61.03;;;29.98;;
69030;SDS011;56083;48.774;8.942;2024-03-08T03:38:33;61.08;;;30.58;;
69030;SDS011;56083;48.774;8.942;2024-03-08T03:40:59;63.17;;;30.48;;
69030;SDS011;56083;48.774;8.942;2024-03-08T03:43:34;64.97;;;30.88;;
69030;SDS011;56083;48.774;8.942;2024-03-08T03:46:00;61.45;;;30.42;;
69030;SDS011;56083;48.774;8.942;2024-03-08T03:48:26;57.47;;;30.35;;
69030;SDS011;56083;48.774;8.942;2024-03-08T03:50:52;62.45;;;31.05;;
69030;SDS011;56083;48.774;8.942;2024-03-08T03:53:18;61.53;;;30.73;;
69030;SDS011;56083;48.774;8.942;2024-03-08T03:55:44;59.30;;;29.92;;
69030;SDS011;56083;48.774;8.942;2024-03-08T03:58:10;61.58;;;31.08;;
69030;SDS011;56083;48.774;8.942;2024-03-08T04:00:36;67.78;;;31.83;;
69030;SDS011;56083;48.774;8.942;2024-03-08T04:03:02;60.42;;;29.13;;
69030;SDS011;56083;48.774;8.942;2024-03-08T04:05:28;62.38;;;30.23;;
69030;SDS011;56083;48.774;8.942;2024-03-08T04:07:56;58.55;;;29.27;;
69030;SDS011;56083;48.774;8.942;2024-03-08T04:10:44;58.15;;;30.30;;
69030;SDS011;56083;48.774;8.942;2024-03-08T04:16:40;61.35;;;30.95;;
69030;SDS011;56083;48.774;8.942;2024-03-08T04:19:06;62.42;;;31.20;;
69030;SDS011;56083;48.774;8.942;2024-03-08T04:21:33;70.75;;;33.15;;
69030;SDS011;56083;48.774;8.942;2024-03-08T04:23:59;63.40;;;31.15;;
69030;SDS011;56083;48.774;8.942;2024-03-08T04:26:25;63.38;;;31.10;;
69030;SDS011;56083;48.774;8.942;2024-03-08T04:28:51;61.97;;;31.95;;
69030;SDS011;56083;48.774;8.942;2024-03-08T04:31:17;69.53;;;32.28;;
69030;SDS011;56083;48.774;8.942;2024-03-08T04:33:44;64.38;;;33.55;;
69030;SDS011;56083;48.774;8.942;2024-03-08T04:36:10;63.78;;;32.38;;
69030;SDS011;56083;48.774;8.942;2024-03-08T04:38:38;66.20;;;33.33;;
69030;SDS011;56083;48.774;8.942;2024-03-08T04:41:05;69.13;;;33.25;;
69030;SDS011;56083;48.774;8.942;2024-03-08T04:43:31;70.55;;;33.85;;
69030;SDS011;56083;48.774;8.942;2024-03-08T04:45:57;68.07;;;32.92;;
69030;SDS011;56083;48.774;8.942;2024-03-08T04:48:23;64.82;;;32.47;;
69030;SDS011;56083;48.774;8.942;2024-03-08T04:50:51;66.55;;;34.03;;
69030;SDS011;56083;48.774;8.942;2024-03-08T04:53:18;67.03;;;33.92;;
69030;SDS011;56083;48.774;8.942;2024-03-08T04:55:44;66.40;;;34.53;;
69030;SDS011;56083;48.774;8.942;2024-03-08T04:58:10;69.10;;;33.83;;
69030;SDS011;56083;48.774;8.942;2024-03-08T05:00:36;67.38;;;33.42;;
69030;SDS011;56083;48.774;8.942;2024-03-08T05:03:02;71.63;;;33.80;;
69030;SDS011;56083;48.774;8.942;2024-03-08T05:05:29;69.38;;;34.17;;
69030;SDS011;56083;48.774;8.942;2024-03-08T05:07:56;69.13;;;34.67;;
69030;SDS011;56083;48.774;8.942;2024-03-08T05:10:22;66.93;;;33.83;;
69030;SDS011;56083;48.774;8.942;2024-03-08T05:12:48;68.22;;;34.03;;
69030;SDS011;56083;48.774;8.942;2024-03-08T05:15:14;74.20;;;35.72;;
69030;SDS011;56083;48.774;8.942;2024-03-08T05:17:41;76.57;;;35.15;;
69030;SDS011;56083;48.774;8.942;2024-03-08T05:20:07;64.05;;;32.35;;
69030;SDS011;56083;48.774;8.942;2024-03-08T05:22:37;65.45;;;33.45;;
69030;SDS011;56083;48.774;8.942;2024-03-08T05:25:03;66.47;;;33.00;;
69030;SDS011;56083;48.774;8.942;2024-03-08T05:27:29;74.22;;;35.72;;
69030;SDS011;56083;48.774;8.942;2024-03-08T05:29:55;69.78;;;33.95;;
69030;SDS011;56083;48.774;8.942;2024-03-08T05:32:21;73.05;;;34.03;;
69030;SDS011;56083;48.774;8.942;2024-03-08T05:34:47;69.47;;;34.88;;
69030;SDS011;56083;48.774;8.942;2024-03-08T05:37:13;71.00;;;34.00;;
69030;SDS011;56083;48.774;8.942;2024-03-08T05:39:39;71.22;;;33.72;;
69030;SDS011;56083;48.774;8.942;2024-03-08T05:42:06;71.50;;;34.65;;
69030;SDS011;56083;48.774;8.942;2024-03-08T05:44:33;67.32;;;34.10;;
69030;SDS011;56083;48.774;8.942;2024-03-08T05:46:59;74.00;;;35.50;;
69030;SDS011;56083;48.774;8.942;2024-03-08T05:49:25;79.60;;;37.17;;
69030;SDS011;56083;48.774;8.942;2024-03-08T05:51:51;82.63;;;38.35;;
69030;SDS011;56083;48.774;8.942;2024-03-08T05:54:19;84.18;;;37.65;;
69030;SDS011;56083;48.774;8.942;2024-03-08T05:56:47;83.75;;;37.85;;
69030;SDS011;56083;48.774;8.942;2024-03-08T05:59:13;74.10;;;35.08;;
69030;SDS011;56083;48.774;8.942;2024-03-08T06:01:39;74.20;;;35.17;;
69030;SDS011;56083;48.774;8.942;2024-03-08T06:04:06;79.45;;;36.85;;
69030;SDS011;56083;48.774;8.942;2024-03-08T06:06:32;71.43;;;34.47;;
69030;SDS011;56083;48.774;8.942;2024-03-08T06:08:58;77.68;;;36.15;;
69030;SDS011;56083;48.774;8.942;2024-03-08T06:11:25;76.35;;;36.47;;
69030;SDS011;56083;48.774;8.942;2024-03-08T06:13:55;73.78;;;35.90;;
69030;SDS011;56083;48.774;8.942;2024-03-08T06:16:31;77.20;;;36.30;;
69030;SDS011;56083;48.774;8.942;2024-03-08T06:19:00;73.75;;;35.53;;
69030;SDS011;56083;48.774;8.942;2024-03-08T06:21:27;76.60;;;36.90;;
69030;SDS011;56083;48.774;8.942;2024-03-08T06:23:53;76.07;;;37.42;;
69030;SDS011;56083;48.774;8.942;2024-03-08T06:26:23;77.88;;;36.80;;
69030;SDS011;56083;48.774;8.942;2024-03-08T06:28:50;78.38;;;38.05;;
69030;SDS011;56083;48.774;8.942;2024-03-08T06:31:16;78.00;;;37.92;;
69030;SDS011;56083;48.774;8.942;2024-03-08T06:33:42;74.70;;;36.58;;
69030;SDS011;56083;48.774;8.942;2024-03-08T06:36:08;73.43;;;36.40;;
69030;SDS011;56083;48.774;8.942;2024-03-08T06:38:36;68.68;;;36.30;;
69030;SDS011;56083;48.774;8.942;2024-03-08T06:41:09;62.78;;;34.22;;
69030;SDS011;56083;48.774;8.942;2024-03-08T06:43:40;64.97;;;33.83;;
69030;SDS011;56083;48.774;8.942;2024-03-08T06:46:06;60.05;;;32.88;;
69030;SDS011;56083;48.774;8.942;2024-03-08T06:48:33;56.50;;;30.85;;
69030;SDS011;56083;48.774;8.942;2024-03-08T06:51:00;48.78;;;28.52;;
69030;SDS011;56083;48.774;8.942;2024-03-08T06:53:26;49.15;;;27.52;;
69030;SDS011;56083;48.774;8.942;2024-03-08T06:55:52;45.38;;;26.00;;
69030;SDS011;56083;48.774;8.942;2024-03-08T06:58:18;46.35;;;27.15;;
69030;SDS011;56083;48.774;8.942;2024-03-08T07:00:44;46.10;;;25.92;;
69030;SDS011;56083;48.774;8.942;2024-03-08T07:03:11;46.88;;;26.33;;
69030;SDS011;56083;48.774;8.942;2024-03-08T07:05:45;49.70;;;27.15;;
69030;SDS011;56083;48.774;8.942;2024-03-08T07:08:14;44.92;;;26.88;;
69030;SDS011;56083;48.774;8.942;2024-03-08T07:10:41;49.17;;;27.30;;
69030;SDS011;56083;48.774;8.942;2024-03-08T07:13:07;50.63;;;27.88;;
69030;SDS011;56083;48.774;8.942;2024-03-08T07:15:33;44.58;;;26.13;;
69030;SDS011;56083;48.774;8.942;2024-03-08T07:18:00;46.13;;;26.38;;
69030;SDS011;56083;48.774;8.942;2024-03-08T07:20:26;45.28;;;26.75;;
69030;SDS011;56083;48.774;8.942;2024-03-08T07:22:53;51.63;;;27.10;;
69030;SDS011;56083;48.774;8.942;2024-03-08T07:25:19;47.67;;;25.48;;
69030;SDS011;56083;48.774;8.942;2024-03-08T07:27:46;46.42;;;25.63;;
69030;SDS011;56083;48.774;8.942;2024-03-08T07:30:12;49.40;;;27.67;;
69030;SDS011;56083;48.774;8.942;2024-03-08T07:32:58;45.97;;;26.38;;
69030;SDS011;56083;48.774;8.942;2024-03-08T07:35:24;43.28;;;25.17;;
69030;SDS011;56083;48.774;8.942;2024-03-08T07:37:51;43.80;;;24.98;;
69030;SDS011;56083;48.774;8.942;2024-03-08T07:40:19;44.05;;;25.17;;
69030;SDS011;56083;48.774;8.942;2024-03-08T07:42:45;47.50;;;25.98;;
69030;SDS011;56083;48.774;8.942;2024-03-08T07:45:11;45.58;;;25.23;;
69030;SDS011;56083;48.774;8.942;2024-03-08T07:47:38;44.90;;;24.13;;
69030;SDS011;56083;48.774;8.942;2024-03-08T07:50:05;41.63;;;24.15;;
69030;SDS011;56083;48.774;8.942;2024-03-08T07:52:33;44.25;;;24.40;;
69030;SDS011;56083;48.774;8.942;2024-03-08T07:54:59;42.63;;;24.05;;
69030;SDS011;56083;48.774;8.942;2024-03-08T07:57:25;43.80;;;24.23;;
69030;SDS011;56083;48.774;8.942;2024-03-08T07:59:51;43.67;;;24.70;;
69030;SDS011;56083;48.774;8.942;2024-03-08T08:02:17;45.78;;;25.85;;
69030;SDS011;56083;48.774;8.942;2024-03-08T08:04:43;41.97;;;24.95;;
69030;SDS011;56083;48.774;8.942;2024-03-08T08:07:12;45.53;;;24.23;;
69030;SDS011;56083;48.774;8.942;2024-03-08T08:09:39;44.08;;;24.67;;
69030;SDS011;56083;48.774;8.942;2024-03-08T08:12:07;42.72;;;24.55;;
69030;SDS011;56083;48.774;8.942;2024-03-08T08:14:36;42.53;;;24.77;;
69030;SDS011;56083;48.774;8.942;2024-03-08T08:17:02;47.42;;;26.48;;
69030;SDS011;56083;48.774;8.942;2024-03-08T08:19:29;42.17;;;24.30;;
69030;SDS011;56083;48.774;8.942;2024-03-08T08:21:56;42.50;;;22.40;;
69030;SDS011;56083;48.774;8.942;2024-03-08T08:24:23;38.97;;;22.60;;
69030;SDS011;56083;48.774;8.942;2024-03-08T08:26:49;38.55;;;23.00;;
69030;SDS011;56083;48.774;8.942;2024-03-08T08:29:15;38.53;;;21.67;;
69030;SDS011;56083;48.774;8.942;2024-03-08T08:31:41;37.53;;;22.63;;
69030;SDS011;56083;48.774;8.942;2024-03-08T08:34:09;42.42;;;21.92;;
69030;SDS011;56083;48.774;8.942;2024-03-08T08:36:37;36.30;;;22.13;;
69030;SDS011;56083;48.774;8.942;2024-03-08T08:39:03;41.00;;;22.67;;
69030;SDS011;56083;48.774;8.942;2024-03-08T08:41:30;38.80;;;21.80;;
69030;SDS011;56083;48.774;8.942;2024-03-08T08:43:56;36.63;;;21.98;;
69030;SDS011;56083;48.774;8.942;2024-03-08T08:46:22;39.15;;;22.98;;
69030;SDS011;56083;48.774;8.942;2024-03-08T08:48:48;40.28;;;23.08;;
69030;SDS011;56083;48.774;8.942;2024-03-08T08:51:14;39.38;;;22.40;;
69030;SDS011;56083;48.774;8.942;2024-03-08T08:53:41;37.08;;;21.23;;
69030;SDS011;56083;48.774;8.942;2024-03-08T08:56:12;36.78;;;21.65;;
69030;SDS011;56083;48.774;8.942;2024-03-08T08:58:41;33.13;;;20.65;;
69030;SDS011;56083;48.774;8.942;2024-03-08T09:01:10;40.20;;;21.75;;
69030;SDS011;56083;48.774;8.942;2024-03-08T09:03:37;34.75;;;21.27;;
69030;SDS011;56083;48.774;8.942;2024-03-08T09:06:05;35.03;;;20.33;;
69030;SDS011;56083;48.774;8.942;2024-03-08T09:08:34;35.00;;;20.63;;
69030;SDS011;56083;48.774;8.942;2024-03-08T09:11:00;37.50;;;20.23;;
69030;SDS011;56083;48.774;8.942;2024-03-08T09:13:26;33.92;;;19.58;;
69030;SDS011;56083;48.774;8.942;2024-03-08T09:15:52;35.33;;;20.75;;
69030;SDS011;56083;48.774;8.942;2024-03-08T09:18:18;38.35;;;20.38;;
69030;SDS011;56083;48.774;8.942;2024-03-08T09:20:45;37.95;;;21.05;;
69030;SDS011;56083;48.774;8.942;2024-03-08T09:23:11;34.45;;;19.63;;
69030;SDS011;56083;48.774;8.942;2024-03-08T09:25:38;33.50;;;20.48;;
69030;SDS011;56083;48.774;8.942;2024-03-08T09:28:04;37.78;;;21.15;;
69030;SDS011;56083;48.774;8.942;2024-03-08T09:30:30;34.22;;;20.90;;
69030;SDS011;56083;48.774;8.942;2024-03-08T09:32:56;34.97;;;20.35;;
69030;SDS011;56083;48.774;8.942;2024-03-08T09:35:22;35.50;;;21.15;;
69030;SDS011;56083;48.774;8.942;2024-03-08T09:37:49;38.15;;;20.63;;
69030;SDS011;56083;48.774;8.942;2024-03-08T09:40:16;39.25;;;20.80;;
69030;SDS011;56083;48.774;8.942;2024-03-08T09:42:45;33.60;;;20.52;;
69030;SDS011;56083;48.774;8.942;2024-03-08T09:45:13;38.15;;;21.35;;
69030;SDS011;56083;48.774;8.942;2024-03-08T09:47:42;34.90;;;20.55;;
69030;SDS011;56083;48.774;8.942;2024-03-08T09:50:09;34.03;;;19.73;;
69030;SDS011;56083;48.774;8.942;2024-03-08T09:52:37;33.03;;;19.75;;
69030;SDS011;56083;48.774;8.942;2024-03-08T09:55:05;40.97;;;21.48;;
69030;SDS011;56083;48.774;8.942;2024-03-08T09:57:35;31.92;;;19.10;;
69030;SDS011;56083;48.774;8.942;2024-03-08T10:00:02;34.03;;;20.27;;
69030;SDS011;56083;48.774;8.942;2024-03-08T10:02:45;37.55;;;20.40;;
69030;SDS011;56083;48.774;8.942;2024-03-08T10:05:14;32.92;;;19.75;;
69030;SDS011;56083;48.774;8.942;2024-03-08T10:07:40;34.50;;;19.50;;
69030;SDS011;56083;48.774;8.942;2024-03-08T10:10:06;33.38;;;19.92;;
69030;SDS011;56083;48.774;8.942;2024-03-08T10:12:34;41.42;;;22.20;;
69030;SDS011;56083;48.774;8.942;2024-03-08T10:15:00;33.08;;;20.00;;
69030;SDS011;56083;48.774;8.942;2024-03-08T10:17:26;30.83;;;19.35;;
69030;SDS011;56083;48.774;8.942;2024-03-08T10:19:57;30.58;;;19.02;;
69030;SDS011;56083;48.774;8.942;2024-03-08T10:22:25;34.03;;;19.38;;
69030;SDS011;56083;48.774;8.942;2024-03-08T10:24:51;32.08;;;18.98;;
69030;SDS011;56083;48.774;8.942;2024-03-08T10:27:17;33.47;;;19.40;;
69030;SDS011;56083;48.774;8.942;2024-03-08T10:29:52;31.55;;;18.65;;
69030;SDS011;56083;48.774;8.942;2024-03-08T10:32:18;30.38;;;18.02;;
69030;SDS011;56083;48.774;8.942;2024-03-08T10:34:45;33.60;;;18.98;;
69030;SDS011;56083;48.774;8.942;2024-03-08T10:37:15;28.40;;;17.60;;
69030;SDS011;56083;48.774;8.942;2024-03-08T10:39:43;31.05;;;18.98;;
69030;SDS011;56083;48.774;8.942;2024-03-08T10:42:13;32.50;;;19.05;;
69030;SDS011;56083;48.774;8.942;2024-03-08T10:47:19;30.77;;;17.90;;
69030;SDS011;56083;48.774;8.942;2024-03-08T10:52:34;28.00;;;17.55;;
69030;SDS011;56083;48.774;8.942;2024-03-08T10:55:02;31.88;;;18.05;;
69030;SDS011;56083;48.774;8.942;2024-03-08T10:57:28;31.17;;;17.77;;
69030;SDS011;56083;48.774;8.942;2024-03-08T10:59:56;28.92;;;17.00;;
69030;SDS011;56083;48.774;8.942;2024-03-08T11:02:22;29.35;;;16.88;;
69030;SDS011;56083;48.774;8.942;2024-03-08T11:04:50;29.10;;;17.90;;
69030;SDS011;56083;48.774;8.942;2024-03-08T11:07:18;27.60;;;16.75;;
69030;SDS011;56083;48.774;8.942;2024-03-08T11:09:47;28.98;;;17.35;;
69030;SDS011;56083;48.774;8.942;2024-03-08T11:12:26;29.40;;;16.40;;
69030;SDS011;56083;48.774;8.942;2024-03-08T11:19:59;26.98;;;17.38;;
69030;SDS011;56083;48.774;8.942;2024-03-08T11:22:31;25.40;;;15.77;;
69030;SDS011;56083;48.774;8.942;2024-03-08T11:24:58;30.48;;;16.02;;
69030;SDS011;56083;48.774;8.942;2024-03-08T11:27:28;26.55;;;15.98;;
69030;SDS011;56083;48.774;8.942;2024-03-08T11:30:02;26.77;;;15.65;;
69030;SDS011;56083;48.774;8.942;2024-03-08T11:32:35;27.00;;;15.82;;
69030;SDS011;56083;48.774;8.942;2024-03-08T11:35:03;25.95;;;15.20;;
69030;SDS011;56083;48.774;8.942;2024-03-08T11:37:33;24.63;;;15.55;;
69030;SDS011;56083;48.774;8.942;2024-03-08T11:40:02;25.02;;;15.77;;
69030;SDS011;56083;48.774;8.942;2024-03-08T11:42:40;22.95;;;15.07;;
69030;SDS011;56083;48.774;8.942;2024-03-08T11:45:09;27.50;;;16.38;;
69030;SDS011;56083;48.774;8.942;2024-03-08T11:47:36;30.65;;;16.67;;
69030;SDS011;56083;48.774;8.942;2024-03-08T11:50:05;28.27;;;16.38;;
69030;SDS011;56083;48.774;8.942;2024-03-08T11:52:36;24.73;;;15.65;;
69030;SDS011;56083;48.774;8.942;2024-03-08T11:55:02;23.10;;;15.48;;
69030;SDS011;56083;48.774;8.942;2024-03-08T11:57:30;25.40;;;16.27;;
69030;SDS011;56083;48.774;8.942;2024-03-08T11:59:56;19.30;;;14.45;;
69030;SDS011;56083;48.774;8.942;2024-03-08T12:02:22;21.67;;;14.23;;
69030;SDS011;56083;48.774;8.942;2024-03-08T12:04:55;25.30;;;15.52;;
69030;SDS011;56083;48.774;8.942;2024-03-08T12:07:22;21.85;;;14.82;;
69030;SDS011;56083;48.774;8.942;2024-03-08T12:12:37;23.70;;;14.07;;
69030;SDS011;56083;48.774;8.942;2024-03-08T12:15:03;22.42;;;15.23;;
69030;SDS011;56083;48.774;8.942;2024-03-08T12:17:29;25.08;;;17.05;;
69030;SDS011;56083;48.774;8.942;2024-03-08T12:19:55;21.75;;;13.77;;
69030;SDS011;56083;48.774;8.942;2024-03-08T12:22:24;25.95;;;15.20;;
69030;SDS011;56083;48.774;8.942;2024-03-08T12:25:02;21.90;;;14.18;;
69030;SDS011;56083;48.774;8.942;2024-03-08T12:27:30;19.80;;;13.93;;
69030;SDS011;56083;48.774;8.942;2024-03-08T12:29:56;17.88;;;13.05;;
69030;SDS011;56083;48.774;8.942;2024-03-08T12:32:22;19.60;;;14.00;;
69030;SDS011;56083;48.774;8.942;2024-03-08T12:34:52;17.60;;;11.93;;
69030;SDS011;56083;48.774;8.942;2024-03-08T12:37:18;19.65;;;13.52;;
69030;SDS011;56083;48.774;8.942;2024-03-08T12:39:44;17.05;;;13.13;;
69030;SDS011;56083;48.774;8.942;2024-03-08T12:42:11;18.83;;;13.07;;
69030;SDS011;56083;48.774;8.942;2024-03-08T12:44:38;16.10;;;12.70;;
69030;SDS011;56083;48.774;8.942;2024-03-08T12:47:09;19.83;;;13.52;;
69030;SDS011;56083;48.774;8.942;2024-03-08T12:49:35;19.75;;;13.25;;
69030;SDS011;56083;48.774;8.942;2024-03-08T12:52:01;20.48;;;13.80;;
69030;SDS011;56083;48.774;8.942;2024-03-08T12:54:27;18.85;;;13.43;;
69030;SDS011;56083;48.774;8.942;2024-03-08T12:56:53;18.27;;;13.27;;
69030;SDS011;56083;48.774;8.942;2024-03-08T12:59:37;17.38;;;12.23;;
69030;SDS011;56083;48.774;8.942;2024-03-08T13:02:06;18.88;;;14.23;;
69030;SDS011;56083;48.774;8.942;2024-03-08T13:04:36;17.15;;;12.05;;
69030;SDS011;56083;48.774;8.942;2024-03-08T13:07:02;18.48;;;12.95;;
69030;SDS011;56083;48.774;8.942;2024-03-08T13:09:28;16.25;;;12.68;;
69030;SDS011;56083;48.774;8.942;2024-03-08T13:11:54;18.13;;;12.90;;
69030;SDS011;56083;48.774;8.942;2024-03-08T13:14:20;18.67;;;13.88;;
69030;SDS011;56083;48.774;8.942;2024-03-08T13:16:47;18.10;;;13.75;;
69030;SDS011;56083;48.774;8.942;2024-03-08T13:19:13;21.45;;;13.65;;
69030;SDS011;56083;48.774;8.942;2024-03-08T13:21:39;19.30;;;13.43;;
69030;SDS011;56083;48.774;8.942;2024-03-08T13:24:07;25.90;;;13.70;;
69030;SDS011;56083;48.774;8.942;2024-03-08T13:26:33;19.02;;;13.75;;
69030;SDS011;56083;48.774;8.942;2024-03-08T13:28:59;21.50;;;14.00;;
69030;SDS011;56083;48.774;8.942;2024-03-08T13:31:25;19.20;;;14.30;;
69030;SDS011;56083;48.774;8.942;2024-03-08T13:33:51;21.30;;;15.10;;
69030;SDS011;56083;48.774;8.942;2024-03-08T13:36:22;20.45;;;14.63;;
69030;SDS011;56083;48.774;8.942;2024-03-08T13:38:53;20.52;;;14.57;;
69030;SDS011;56083;48.774;8.942;2024-03-08T13:41:20;21.95;;;15.95;;
69030;SDS011;56083;48.774;8.942;2024-03-08T13:43:49;22.13;;;14.63;;
69030;SDS011;56083;48.774;8.942;2024-03-08T13:46:16;20.33;;;14.50;;
69030;SDS011;56083;48.774;8.942;2024-03-08T13:48:42;22.85;;;14.77;;
69030;SDS011;56083;48.774;8.942;2024-03-08T13:51:08;22.25;;;14.63;;
69030;SDS011;56083;48.774;8.942;2024-03-08T13:53:40;20.75;;;15.13;;
69030;SDS011;56083;48.774;8.942;2024-03-08T13:56:06;22.00;;;15.00;;
69030;SDS011;56083;48.774;8.942;2024-03-08T13:58:36;24.88;;;16.33;;
69030;SDS011;56083;48.774;8.942;2024-03-08T14:01:02;23.70;;;15.70;;
69030;SDS011;56083;48.774;8.942;2024-03-08T14:03:31;21.83;;;15.95;;
69030;SDS011;56083;48.774;8.942;2024-03-08T14:05:58;23.33;;;15.68;;
69030;SDS011;56083;48.774;8.942;2024-03-08T14:08:25;25.10;;;16.98;;
69030;SDS011;56083;48.774;8.942;2024-03-08T14:10:52;25.85;;;16.45;;
69030;SDS011;56083;48.774;8.942;2024-03-08T14:13:18;28.92;;;16.73;;
69030;SDS011;56083;48.774;8.942;2024-03-08T14:15:46;24.05;;;16.73;;
69030;SDS011;56083;48.774;8.942;2024-03-08T14:18:13;23.48;;;15.98;;
69030;SDS011;56083;48.774;8.942;2024-03-08T14:20:40;22.23;;;15.75;;
69030;SDS011;56083;48.774;8.942;2024-03-08T14:23:07;28.02;;;17.48;;
69030;SDS011;56083;48.774;8.942;2024-03-08T14:25:33;29.65;;;17.55;;
69030;SDS011;56083;48.774;8.942;2024-03-08T14:27:59;26.23;;;15.68;;
69030;SDS011;56083;48.774;8.942;2024-03-08T14:30:32;25.63;;;16.38;;
69030;SDS011;56083;48.774;8.942;2024-03-08T14:33:00;25.85;;;16.70;;
69030;SDS011;56083;48.774;8.942;2024-03-08T14:35:26;25.15;;;16.42;;
69030;SDS011;56083;48.774;8.942;2024-03-08T14:37:52;27.00;;;16.33;;
69030;SDS011;56083;48.774;8.942;2024-03-08T14:40:19;25.52;;;16.25;;
69030;SDS011;56083;48.774;8.942;2024-03-08T14:42:47;31.73;;;15.57;;
69030;SDS011;56083;48.774;8.942;2024-03-08T14:45:15;25.80;;;16.63;;